createdAt,value
2023-03-03T00:01:14.764Z,10.02
2023-03-03T00:03:41.450Z,10.75
2023-03-03T00:06:11.205Z,10.38
2023-03-03T00:08:38.164Z,9.38
2023-03-03T00:11:04.882Z,10.10
2023-03-03T00:13:31.811Z,10.40
2023-03-03T00:16:16.929Z,10.20
2023-03-03T00:18:46.625Z,10.18
2023-03-03T00:21:22.357Z,10.60
2023-03-03T00:23:48.989Z,10.38
2023-03-03T00:26:23.755Z,9.18
2023-03-03T00:28:52.440Z,10.43
2023-03-03T00:31:22.029Z,10.57
2023-03-03T00:33:51.307Z,10.85
2023-03-03T00:36:37.885Z,10.10
2023-03-03T00:39:37.859Z,10.18
2023-03-03T00:42:18.581Z,11.13
2023-03-03T00:44:49.370Z,11.32
2023-03-03T00:47:32.444Z,11.15
2023-03-03T00:50:32.412Z,10.82
2023-03-03T00:53:11.888Z,9.15
2023-03-03T00:55:38.613Z,11.15
2023-03-03T00:58:05.188Z,10.63
2023-03-03T01:00:33.953Z,10.18
2023-03-03T01:03:04.591Z,10.23
2023-03-03T01:05:31.097Z,9.88
2023-03-03T01:07:57.746Z,9.90
2023-03-03T01:10:25.308Z,10.82
2023-03-03T01:12:52.085Z,10.55
2023-03-03T01:15:18.750Z,10.07
2023-03-03T01:17:45.276Z,10.73
2023-03-03T01:20:14.651Z,12.15
2023-03-03T01:22:41.412Z,10.00
2023-03-03T01:25:09.082Z,11.05
2023-03-03T01:27:36.449Z,9.95
2023-03-03T01:30:05.196Z,8.98
2023-03-03T01:32:32.048Z,10.10
2023-03-03T01:34:58.779Z,10.02
2023-03-03T01:37:25.485Z,11.20
2023-03-03T01:39:53.908Z,10.57
2023-03-03T01:42:21.386Z,9.45
2023-03-03T01:44:48.549Z,10.85
2023-03-03T01:47:22.359Z,11.00
2023-03-03T01:49:58.498Z,9.90
2023-03-03T01:52:38.383Z,10.95
2023-03-03T01:55:12.572Z,10.70
2023-03-03T01:57:44.155Z,9.35
2023-03-03T02:00:11.208Z,8.98
2023-03-03T02:02:38.572Z,10.63
2023-03-03T02:05:05.513Z,9.95
2023-03-03T02:07:32.248Z,10.07
2023-03-03T02:10:12.370Z,9.82
2023-03-03T02:15:18.367Z,9.23
2023-03-03T02:17:45.832Z,10.40
2023-03-03T02:20:20.298Z,9.68
2023-03-03T02:23:07.085Z,8.60
2023-03-03T02:25:43.144Z,9.82
2023-03-03T02:28:09.550Z,9.77
2023-03-03T02:30:39.973Z,8.77
2023-03-03T02:33:06.910Z,10.40
2023-03-03T02:35:40.417Z,8.90
2023-03-03T02:38:17.884Z,9.13
2023-03-03T02:40:51.939Z,10.93
2023-03-03T02:45:46.895Z,8.82
2023-03-03T02:48:13.336Z,9.38
2023-03-03T02:50:39.656Z,8.38
2023-03-03T02:53:06.061Z,8.93
2023-03-03T02:55:32.369Z,9.88
2023-03-03T02:57:58.767Z,8.80
2023-03-03T03:00:25.121Z,9.63
2023-03-03T03:02:51.460Z,9.93
2023-03-03T03:05:17.737Z,8.48
2023-03-03T03:07:44.144Z,9.00
2023-03-03T03:10:10.919Z,9.02
2023-03-03T03:12:37.211Z,10.52
2023-03-03T03:15:03.867Z,9.52
2023-03-03T03:17:30.324Z,9.65
2023-03-03T03:19:56.622Z,8.23
2023-03-03T03:22:22.963Z,9.43
2023-03-03T03:24:49.291Z,10.05
2023-03-03T03:27:15.580Z,9.63
2023-03-03T03:29:41.894Z,12.05
2023-03-03T03:32:08.340Z,9.70
2023-03-03T03:34:34.638Z,8.10
2023-03-03T03:37:00.947Z,9.20
2023-03-03T03:39:27.308Z,8.25
2023-03-03T03:41:53.629Z,9.65
2023-03-03T03:44:20.075Z,8.77
2023-03-03T03:46:46.501Z,9.50
2023-03-03T03:49:12.969Z,9.25
2023-03-03T03:51:39.260Z,9.57
2023-03-03T03:54:05.628Z,9.57
2023-03-03T03:56:31.926Z,8.65
2023-03-03T03:58:58.327Z,9.40
2023-03-03T04:01:25.117Z,8.77
2023-03-03T04:03:51.434Z,9.52
2023-03-03T04:06:17.889Z,9.55
2023-03-03T04:08:44.556Z,9.80
2023-03-03T04:11:10.832Z,9.38
2023-03-03T04:13:37.199Z,8.48
2023-03-03T04:16:03.640Z,8.68
2023-03-03T04:18:30.100Z,9.55
2023-03-03T04:20:56.418Z,8.55
2023-03-03T04:23:22.707Z,8.25
2023-03-03T04:25:49.332Z,8.05
2023-03-03T04:28:16.990Z,9.38
2023-03-03T04:30:44.277Z,9.40
2023-03-03T04:33:10.821Z,9.57
2023-03-03T04:35:37.219Z,10.70
2023-03-03T04:38:03.534Z,10.68
2023-03-03T04:40:29.821Z,9.57
2023-03-03T04:42:56.200Z,8.43
2023-03-03T04:45:22.505Z,9.23
2023-03-03T04:47:48.789Z,8.50
2023-03-03T04:50:15.112Z,8.30
2023-03-03T04:52:41.396Z,9.52
2023-03-03T04:55:10.400Z,9.27
2023-03-03T04:57:36.891Z,9.15
2023-03-03T05:00:04.171Z,8.18
2023-03-03T05:02:30.476Z,9.85
2023-03-03T05:04:56.798Z,9.20
2023-03-03T05:07:23.176Z,9.85
2023-03-03T05:09:49.551Z,8.88
2023-03-03T05:12:15.910Z,8.95
2023-03-03T05:14:42.360Z,8.80
2023-03-03T05:17:08.743Z,9.15
2023-03-03T05:19:35.129Z,8.77
2023-03-03T05:22:01.983Z,9.05
2023-03-03T05:24:28.326Z,8.13
2023-03-03T05:26:54.664Z,8.35
2023-03-03T05:29:20.989Z,7.97
2023-03-03T05:31:47.314Z,9.20
2023-03-03T05:34:13.644Z,9.13
2023-03-03T05:36:40.052Z,8.70
2023-03-03T05:39:06.628Z,9.48
2023-03-03T05:41:33.015Z,8.10
2023-03-03T05:43:59.314Z,9.77
2023-03-03T05:46:25.686Z,10.23
2023-03-03T05:48:52.146Z,8.98
2023-03-03T05:51:18.475Z,8.85
2023-03-03T05:53:44.811Z,9.65
2023-03-03T05:56:11.220Z,9.57
2023-03-03T05:58:37.593Z,9.40
2023-03-03T06:01:04.315Z,8.77
2023-03-03T06:03:30.735Z,8.93
2023-03-03T06:05:57.286Z,9.38
2023-03-03T06:08:23.724Z,9.23
2023-03-03T06:10:50.222Z,9.32
2023-03-03T06:13:16.808Z,9.45
2023-03-03T06:15:43.344Z,9.18
2023-03-03T06:18:09.991Z,10.75
2023-03-03T06:20:36.365Z,9.20
2023-03-03T06:23:02.687Z,9.35
2023-03-03T06:25:29.009Z,10.05
2023-03-03T06:27:55.395Z,10.80
2023-03-03T06:30:21.795Z,9.77
2023-03-03T06:32:48.247Z,9.63
2023-03-03T06:35:14.712Z,10.93
2023-03-03T06:37:41.075Z,10.32
2023-03-03T06:40:07.999Z,9.52
2023-03-03T06:42:34.333Z,8.85
2023-03-03T06:45:00.628Z,10.10
2023-03-03T06:47:27.014Z,11.55
2023-03-03T06:49:53.304Z,11.63
2023-03-03T06:52:23.643Z,11.25
2023-03-03T06:54:53.580Z,10.65
2023-03-03T06:57:33.449Z,11.70
2023-03-03T07:00:19.226Z,11.32
2023-03-03T07:02:46.896Z,11.50
2023-03-03T07:05:17.021Z,11.10
2023-03-03T07:07:44.121Z,12.82
2023-03-03T07:10:23.565Z,11.45
2023-03-03T07:12:49.998Z,11.77
2023-03-03T07:15:33.912Z,10.63
2023-03-03T07:18:00.489Z,12.38
2023-03-03T07:20:36.368Z,13.45
2023-03-03T07:23:17.735Z,13.77
2023-03-03T07:25:44.051Z,13.23
2023-03-03T07:28:23.225Z,13.52
2023-03-03T07:30:49.896Z,13.65
2023-03-03T07:33:19.787Z,14.65
2023-03-03T07:35:47.003Z,12.60
2023-03-03T07:38:29.241Z,14.02
2023-03-03T07:40:58.777Z,13.43
2023-03-03T07:43:35.072Z,15.38
2023-03-03T07:46:10.499Z,13.25
2023-03-03T07:48:39.430Z,13.52
2023-03-03T07:51:19.096Z,12.77
2023-03-03T07:53:45.501Z,12.70
2023-03-03T07:56:35.221Z,13.75
2023-03-03T07:59:15.999Z,15.60
2023-03-03T08:01:46.060Z,12.93
2023-03-03T08:04:17.737Z,13.23
2023-03-03T08:06:48.366Z,13.15
2023-03-03T08:09:17.412Z,12.32
2023-03-03T08:12:39.158Z,12.95
2023-03-03T08:15:27.881Z,14.63
2023-03-03T08:17:55.536Z,17.83
2023-03-03T08:20:46.638Z,13.70
2023-03-03T08:23:14.875Z,14.07
2023-03-03T08:25:41.773Z,16.15
2023-03-03T08:28:09.213Z,12.68
2023-03-03T08:30:35.640Z,15.85
2023-03-03T08:33:01.974Z,14.38
2023-03-03T08:35:28.492Z,15.45
2023-03-03T08:37:55.020Z,13.68
2023-03-03T08:40:21.612Z,12.90
2023-03-03T08:42:48.041Z,15.35
2023-03-03T08:45:14.476Z,12.82
2023-03-03T08:47:40.811Z,15.98
2023-03-03T08:50:07.417Z,15.85
2023-03-03T08:52:33.728Z,13.73
2023-03-03T08:55:00.127Z,13.05
2023-03-03T08:57:26.442Z,11.55
2023-03-03T08:59:52.784Z,13.13
2023-03-03T09:02:19.131Z,12.65
2023-03-03T09:04:45.527Z,14.55
2023-03-03T09:07:11.881Z,12.77
2023-03-03T09:09:38.267Z,11.80
2023-03-03T09:12:16.814Z,11.70
2023-03-03T09:14:43.217Z,12.43
2023-03-03T09:17:25.036Z,11.75
2023-03-03T09:19:52.103Z,12.13
2023-03-03T09:22:21.370Z,11.18
2023-03-03T09:24:49.544Z,11.75
2023-03-03T09:27:22.962Z,11.80
2023-03-03T09:29:49.331Z,11.65
2023-03-03T09:32:37.296Z,12.23
2023-03-03T09:35:36.140Z,12.15
2023-03-03T09:38:16.208Z,11.88
2023-03-03T09:41:01.229Z,12.70
2023-03-03T09:43:50.510Z,12.02
2023-03-03T09:46:22.712Z,12.32
2023-03-03T09:49:10.363Z,11.73
2023-03-03T09:52:08.987Z,14.48
2023-03-03T09:54:46.165Z,13.18
2023-03-03T09:57:44.604Z,11.95
2023-03-03T10:00:29.046Z,12.55
2023-03-03T10:03:17.081Z,11.75
2023-03-03T10:05:53.734Z,13.43
2023-03-03T10:08:42.159Z,10.70
2023-03-03T10:11:17.465Z,11.23
2023-03-03T10:14:19.050Z,11.82
2023-03-03T10:17:16.011Z,11.85
2023-03-03T10:19:57.133Z,12.52
2023-03-03T10:22:44.560Z,12.85
2023-03-03T10:25:39.236Z,14.25
2023-03-03T10:28:24.045Z,12.43
2023-03-03T10:31:06.202Z,12.50
2023-03-03T10:33:57.500Z,13.43
2023-03-03T10:36:34.458Z,13.70
2023-03-03T10:39:29.939Z,10.40
2023-03-03T10:42:10.734Z,11.88
2023-03-03T10:45:09.345Z,12.82
2023-03-03T10:48:07.897Z,12.68
2023-03-03T10:50:43.498Z,10.82
2023-03-03T10:53:34.442Z,10.98
2023-03-03T10:56:15.004Z,14.00
2023-03-03T10:59:08.954Z,13.68
2023-03-03T11:01:53.781Z,12.07
2023-03-03T11:04:29.463Z,11.82
2023-03-03T11:07:09.537Z,11.27
2023-03-03T11:09:53.810Z,13.38
2023-03-03T11:12:32.329Z,13.43
2023-03-03T11:15:25.026Z,12.10
2023-03-03T11:18:28.911Z,11.25
2023-03-03T11:21:07.354Z,11.00
2023-03-03T11:23:54.192Z,11.88
2023-03-03T11:26:31.437Z,13.30
2023-03-03T11:29:12.515Z,11.88
2023-03-03T11:31:51.049Z,11.70
2023-03-03T11:34:50.475Z,11.77
2023-03-03T11:40:12.935Z,11.18
2023-03-03T11:43:01.239Z,11.48
2023-03-03T11:46:03.481Z,13.45
2023-03-03T11:49:05.367Z,11.50
2023-03-03T11:51:44.004Z,13.38
2023-03-03T11:54:21.817Z,12.43
2023-03-03T11:56:49.226Z,14.05
2023-03-03T11:59:30.733Z,12.75
2023-03-03T12:02:03.399Z,10.93
2023-03-03T12:04:36.776Z,11.73
2023-03-03T12:07:19.465Z,11.13
2023-03-03T12:10:02.813Z,11.35
2023-03-03T12:12:43.202Z,11.82
2023-03-03T12:15:19.088Z,10.13
2023-03-03T12:18:11.393Z,10.93
2023-03-03T12:20:57.717Z,13.05
2023-03-03T12:23:41.679Z,11.55
2023-03-03T12:26:17.125Z,11.80
2023-03-03T12:28:58.200Z,11.55
2023-03-03T12:31:59.906Z,13.50
2023-03-03T12:34:37.476Z,11.52
2023-03-03T12:37:30.673Z,10.68
2023-03-03T12:40:30.038Z,10.48
2023-03-03T12:43:14.490Z,9.15
2023-03-03T12:45:55.385Z,10.18
2023-03-03T12:48:35.483Z,10.05
2023-03-03T12:51:27.362Z,10.02
2023-03-03T12:56:46.100Z,10.50
2023-03-03T12:59:28.241Z,11.00
2023-03-03T13:02:15.638Z,10.85
2023-03-03T13:04:54.138Z,9.30
2023-03-03T13:07:35.814Z,10.25
2023-03-03T13:10:32.545Z,10.75
2023-03-03T13:13:17.320Z,9.98
2023-03-03T13:15:56.056Z,9.23
2023-03-03T13:18:38.617Z,9.73
2023-03-03T13:21:21.394Z,10.60
2023-03-03T13:24:24.516Z,9.32
2023-03-03T13:27:07.245Z,10.65
2023-03-03T13:29:41.127Z,10.00
2023-03-03T13:32:22.100Z,10.43
2023-03-03T13:35:00.498Z,9.50
2023-03-03T13:37:33.757Z,9.85
2023-03-03T13:40:11.044Z,9.65
2023-03-03T13:42:47.394Z,10.48
2023-03-03T13:45:44.969Z,10.77
2023-03-03T13:48:35.630Z,10.93
2023-03-03T13:51:31.282Z,10.40
2023-03-03T13:54:22.264Z,9.40
2023-03-03T13:57:03.203Z,9.40
2023-03-03T13:59:38.750Z,10.13
2023-03-03T14:02:32.960Z,8.13
2023-03-03T14:05:27.078Z,8.88
2023-03-03T14:07:59.099Z,9.88
2023-03-03T14:10:54.945Z,9.10
2023-03-03T14:13:33.558Z,9.68
2023-03-03T14:16:07.451Z,9.98
2023-03-03T14:18:52.774Z,10.38
2023-03-03T14:21:25.814Z,9.88
2023-03-03T14:24:16.586Z,8.52
2023-03-03T14:26:50.056Z,8.60
2023-03-03T14:29:26.128Z,9.07
2023-03-03T14:31:56.567Z,8.68
2023-03-03T14:34:22.938Z,10.25
2023-03-03T14:37:01.146Z,10.70
2023-03-03T14:39:39.949Z,8.90
2023-03-03T14:42:30.816Z,9.07
2023-03-03T14:44:57.565Z,8.82
2023-03-03T14:50:33.323Z,8.57
2023-03-03T14:53:12.088Z,10.15
2023-03-03T14:55:41.458Z,8.77
2023-03-03T14:58:34.694Z,8.07
2023-03-03T15:01:24.216Z,9.25
2023-03-03T15:04:00.068Z,10.18
2023-03-03T15:06:40.955Z,8.98
2023-03-03T15:09:33.871Z,8.90
2023-03-03T15:12:01.156Z,9.95
2023-03-03T15:14:43.179Z,9.02
2023-03-03T15:17:23.720Z,7.57
2023-03-03T15:19:56.041Z,8.60
2023-03-03T15:22:49.373Z,9.75
2023-03-03T15:25:52.237Z,7.60
2023-03-03T15:28:29.835Z,9.93
2023-03-03T15:31:19.253Z,8.68
2023-03-03T15:33:51.958Z,7.85
2023-03-03T15:36:41.472Z,8.40
2023-03-03T15:39:24.623Z,7.97
2023-03-03T15:42:07.630Z,7.40
2023-03-03T15:44:59.723Z,7.03
2023-03-03T15:47:47.024Z,7.90
2023-03-03T15:50:38.175Z,6.85
2023-03-03T15:53:14.692Z,6.93
2023-03-03T15:55:58.766Z,7.45
2023-03-03T15:58:43.956Z,7.00
2023-03-03T16:01:32.801Z,6.82
2023-03-03T16:04:05.224Z,6.70
2023-03-03T16:06:43.795Z,7.45
2023-03-03T16:09:46.078Z,7.35
2023-03-03T16:12:30.491Z,6.85
2023-03-03T16:15:20.381Z,6.82
2023-03-03T16:17:55.867Z,6.72
2023-03-03T16:20:44.021Z,7.65
2023-03-03T16:23:23.975Z,7.20
2023-03-03T16:26:05.724Z,7.97
2023-03-03T16:28:45.165Z,6.50
2023-03-03T16:31:21.867Z,7.13
2023-03-03T16:34:07.188Z,6.68
2023-03-03T16:36:51.919Z,7.10
2023-03-03T16:39:42.474Z,6.18
2023-03-03T16:42:26.959Z,7.05
2023-03-03T16:45:20.324Z,6.90
2023-03-03T16:47:58.645Z,5.50
2023-03-03T16:50:38.197Z,6.03
2023-03-03T16:53:33.094Z,5.75
2023-03-03T16:56:14.461Z,5.97
2023-03-03T16:59:04.105Z,5.50
2023-03-03T17:01:45.578Z,5.07
2023-03-03T17:04:21.078Z,5.97
2023-03-03T17:06:58.661Z,6.05
2023-03-03T17:09:44.664Z,6.57
2023-03-03T17:12:46.207Z,6.10
2023-03-03T17:15:20.384Z,6.28
2023-03-03T17:18:10.622Z,6.30
2023-03-03T17:20:36.862Z,6.25
2023-03-03T17:23:28.308Z,5.15
2023-03-03T17:26:23.173Z,4.82
2023-03-03T17:29:21.626Z,5.10
2023-03-03T17:31:59.954Z,4.00
2023-03-03T17:35:07.963Z,4.28
2023-03-03T17:37:42.296Z,4.22
2023-03-03T17:40:40.092Z,4.40
2023-03-03T17:43:24.615Z,4.78
2023-03-03T17:45:56.207Z,4.75
2023-03-03T17:48:36.242Z,3.97
2023-03-03T17:51:24.680Z,4.13
2023-03-03T17:54:19.226Z,3.70
2023-03-03T17:57:06.032Z,4.05
2023-03-03T18:00:11.335Z,4.53
2023-03-03T18:03:13.260Z,4.82
2023-03-03T18:05:50.613Z,4.38
2023-03-03T18:08:35.757Z,4.20
2023-03-03T18:11:18.996Z,4.82
2023-03-03T18:14:02.999Z,3.95
2023-03-03T18:16:41.432Z,4.93
2023-03-03T18:19:45.684Z,4.10
2023-03-03T18:22:33.017Z,4.50
2023-03-03T18:25:22.673Z,4.30
2023-03-03T18:28:01.169Z,4.55
2023-03-03T18:30:29.855Z,5.43
2023-03-03T18:32:56.101Z,5.95
2023-03-03T18:35:39.138Z,5.40
2023-03-03T18:38:17.721Z,4.72
2023-03-03T18:41:00.188Z,4.40
2023-03-03T18:43:44.940Z,4.38
2023-03-03T18:46:20.627Z,4.63
2023-03-03T18:48:54.297Z,5.45
2023-03-03T18:51:38.671Z,6.13
2023-03-03T18:54:14.207Z,5.82
2023-03-03T18:56:54.156Z,5.85
2023-03-03T18:59:35.817Z,4.78
2023-03-03T19:02:23.819Z,4.55
2023-03-03T19:05:07.198Z,4.80
2023-03-03T19:08:02.387Z,4.80
2023-03-03T19:10:43.701Z,4.43
2023-03-03T19:13:34.895Z,5.25
2023-03-03T19:16:09.477Z,4.93
2023-03-03T19:18:55.837Z,5.78
2023-03-03T19:21:35.706Z,4.90
2023-03-03T19:27:04.315Z,4.85
2023-03-03T19:29:46.059Z,7.97
2023-03-03T19:32:44.357Z,6.68
2023-03-03T19:35:29.095Z,4.57
2023-03-03T19:38:18.013Z,4.63
2023-03-03T19:41:03.516Z,5.00
2023-03-03T19:44:03.575Z,5.03
2023-03-03T19:46:50.409Z,5.47
2023-03-03T19:49:35.412Z,5.13
2023-03-03T19:52:13.108Z,5.57
2023-03-03T19:54:46.998Z,5.97
2023-03-03T20:00:01.300Z,5.53
2023-03-03T20:02:45.439Z,6.55
2023-03-03T20:05:36.790Z,6.55
2023-03-03T20:08:24.804Z,6.57
2023-03-03T20:11:20.823Z,9.73
2023-03-03T20:14:09.213Z,10.32
2023-03-03T20:16:41.095Z,9.07
2023-03-03T20:19:24.619Z,8.13
2023-03-03T20:22:16.841Z,7.45
2023-03-03T20:30:03.377Z,7.13
2023-03-03T20:33:03.993Z,8.18
2023-03-03T20:35:54.505Z,7.40
2023-03-03T20:38:44.895Z,7.45
2023-03-03T20:41:46.840Z,7.47
2023-03-03T20:44:13.168Z,7.10
2023-03-03T20:46:54.395Z,6.97
2023-03-03T20:49:39.436Z,6.78
2023-03-03T20:52:14.366Z,6.97
2023-03-03T20:54:49.746Z,6.45
2023-03-03T20:57:20.720Z,6.88
2023-03-03T20:59:57.234Z,6.05
2023-03-03T21:02:37.727Z,6.80
2023-03-03T21:05:15.513Z,6.97
2023-03-03T21:07:58.657Z,6.22
2023-03-03T21:10:28.236Z,5.95
2023-03-03T21:12:56.669Z,7.15
2023-03-03T21:15:27.150Z,7.18
2023-03-03T21:17:54.224Z,7.50
2023-03-03T21:20:38.480Z,6.22
2023-03-03T21:23:04.825Z,6.82
2023-03-03T21:25:40.256Z,8.43
2023-03-03T21:28:33.713Z,8.43
2023-03-03T21:31:16.298Z,7.57
2023-03-03T21:33:49.606Z,7.30
2023-03-03T21:36:22.252Z,7.75
2023-03-03T21:38:49.264Z,7.38
2023-03-03T21:41:17.460Z,7.50
2023-03-03T21:43:46.661Z,7.72
2023-03-03T21:46:17.071Z,7.30
2023-03-03T21:48:43.494Z,7.85
2023-03-03T21:51:10.391Z,7.93
2023-03-03T21:53:36.736Z,8.50
2023-03-03T21:56:03.304Z,7.47
2023-03-03T21:58:29.667Z,8.20
2023-03-03T22:00:56.120Z,8.15
2023-03-03T22:03:22.543Z,8.38
2023-03-03T22:05:48.946Z,7.53
2023-03-03T22:08:15.514Z,8.38
2023-03-03T22:10:41.810Z,7.82
2023-03-03T22:13:08.187Z,7.88
2023-03-03T22:15:34.593Z,8.80
2023-03-03T22:18:00.943Z,9.52
2023-03-03T22:20:27.338Z,7.45
2023-03-03T22:22:53.696Z,8.35
2023-03-03T22:25:20.067Z,8.60
2023-03-03T22:27:46.360Z,9.40
2023-03-03T22:30:13.124Z,8.98
2023-03-03T22:32:39.408Z,7.70
2023-03-03T22:35:06.396Z,8.00
2023-03-03T22:37:32.720Z,8.82
2023-03-03T22:39:59.151Z,8.38
2023-03-03T22:42:25.570Z,9.00
2023-03-03T22:44:51.932Z,10.45
2023-03-03T22:47:18.246Z,9.90
2023-03-03T22:49:44.552Z,9.18
2023-03-03T22:52:10.862Z,8.85
2023-03-03T22:54:37.240Z,8.45
2023-03-03T22:57:03.557Z,9.40
2023-03-03T22:59:29.963Z,9.05
2023-03-03T23:01:56.309Z,8.95
2023-03-03T23:04:22.662Z,9.23
2023-03-03T23:06:48.987Z,8.70
2023-03-03T23:09:15.315Z,9.15
2023-03-03T23:11:41.607Z,8.98
2023-03-03T23:14:07.987Z,8.68
2023-03-03T23:16:34.368Z,9.07
2023-03-03T23:19:00.697Z,10.05
2023-03-03T23:21:27.002Z,9.23
2023-03-03T23:23:53.324Z,9.13
2023-03-03T23:26:19.749Z,9.88
2023-03-03T23:28:46.069Z,8.93
2023-03-03T23:31:12.421Z,8.85
2023-03-03T23:33:38.729Z,10.15
2023-03-03T23:36:05.293Z,8.57
2023-03-03T23:38:31.618Z,8.07
2023-03-03T23:40:57.951Z,7.57
2023-03-03T23:43:24.317Z,7.28
2023-03-03T23:45:50.649Z,7.38
2023-03-03T23:48:16.943Z,7.47
2023-03-03T23:50:43.352Z,7.82
2023-03-03T23:53:09.676Z,7.43
2023-03-03T23:55:36.042Z,9.02
2023-03-03T23:58:02.459Z,7.13
